Time;durP1;ratioP1;P1;durP2;ratioP2;P2;SDS_P1;SDS_P2;PMS_P1;PMS_P2;Temp;Humidity;BMP_temperature;BMP_pressure;BME280_temperature;BME280_humidity;BME280_pressure;Samples;Min_cycle;Max_cycle;Signal;HPM_P1;HPM_P2
2023/05/27 00:00:03;;;;;;;1.03;1.00;;;;;;;17.43;51.17;100059.47;5036380;28;20125;-73
2023/05/27 00:02:34;;;;;;;4.55;0.65;;;;;;;17.43;51.13;100059.47;5036467;28;20065;-73
2023/05/27 00:05:04;;;;;;;1.40;0.85;;;;;;;17.44;51.25;100063.72;5036236;28;20077;-72
2023/05/27 00:07:34;;;;;;;5.65;2.08;;;;;;;17.43;50.66;100059.47;5036228;28;20060;-72
2023/05/27 00:10:03;;;;;;;0.60;0.60;;;;;;;17.43;50.63;100058.59;5036148;28;20113;-73
2023/05/27 00:12:31;;;;;;;1.73;1.05;;;;;;;17.43;50.21;100056.88;5036062;28;20125;-73
2023/05/27 00:15:00;;;;;;;0.60;0.60;;;;;;;17.39;50.36;100052.69;5036039;28;20092;-74
2023/05/27 00:17:31;;;;;;;0.40;0.40;;;;;;;17.36;50.16;100047.59;5036319;28;20049;-74
2023/05/27 00:20:07;;;;;;;2.70;1.23;;;;;;;17.32;50.32;100043.34;5036007;28;20052;-72
2023/05/27 00:22:36;;;;;;;0.55;0.55;;;;;;;17.29;50.06;100051.19;5035879;28;20092;-72
2023/05/27 00:25:06;;;;;;;0.65;0.65;;;;;;;17.29;49.69;100045.16;5036035;28;20430;-72
2023/05/27 00:27:35;;;;;;;1.20;1.10;;;;;;;17.30;49.72;100047.69;5035803;28;20052;-74
2023/05/27 00:30:04;;;;;;;7.23;1.50;;;;;;;17.30;49.49;100046.84;5035685;28;20125;-72
2023/05/27 00:32:33;;;;;;;1.55;1.02;;;;;;;17.25;49.41;100044.38;5035652;28;20279;-71
2023/05/27 00:35:04;;;;;;;0.90;0.85;;;;;;;17.22;49.72;100046.19;5035148;28;20041;-74
2023/05/27 00:37:33;;;;;;;1.10;1.00;;;;;;;17.19;49.35;100049.69;5034502;28;20050;-73
2023/05/27 00:40:02;;;;;;;1.75;1.45;;;;;;;17.19;49.61;100044.50;5034323;28;20538;-71
2023/05/27 00:42:31;;;;;;;0.50;0.50;;;;;;;17.19;49.77;100049.69;5035460;28;20060;-73
2023/05/27 00:45:00;;;;;;;2.45;0.93;;;;;;;17.09;49.58;100042.16;5035374;28;20049;-71
2023/05/27 00:47:33;;;;;;;1.75;1.58;;;;;;;17.13;49.61;100044.63;5034167;28;20469;-73
2023/05/27 00:50:04;;;;;;;0.40;0.40;;;;;;;17.10;49.62;100044.72;5034724;28;20042;-73
2023/05/27 00:52:33;;;;;;;1.67;0.73;;;;;;;17.09;49.84;100048.16;5034257;28;20073;-72
2023/05/27 00:55:02;;;;;;;0.50;0.50;;;;;;;17.04;49.61;100044.84;5035241;28;20076;-72
2023/05/27 00:57:31;;;;;;;1.00;0.98;;;;;;;16.98;49.81;100050.13;5035161;28;20042;-73
2023/05/27 01:00:00;;;;;;;0.85;0.85;;;;;;;16.98;49.75;100051.84;5034142;28;20048;-72
2023/05/27 01:02:30;;;;;;;0.68;0.68;;;;;;;16.99;49.94;100043.25;5035136;28;20038;-70
2023/05/27 01:04:58;;;;;;;0.53;0.53;;;;;;;17.04;50.42;100044.84;5034898;28;20047;-70
2023/05/27 01:07:36;;;;;;;0.50;0.50;;;;;;;17.04;50.74;100044.84;5035059;28;20339;-73
2023/05/27 01:10:12;;;;;;;3.20;1.23;;;;;;;16.99;50.45;100051.81;5033844;28;20494;-73
2023/05/27 01:12:48;;;;;;;0.85;0.85;;;;;;;16.96;50.62;100051.91;5034998;28;20491;-70
2023/05/27 01:15:18;;;;;;;0.70;0.70;;;;;;;16.96;50.33;100056.19;5033613;28;20042;-72
2023/05/27 01:17:49;;;;;;;1.38;1.25;;;;;;;16.99;50.52;100056.16;5034877;28;20498;-69
2023/05/27 01:20:20;;;;;;;0.57;0.57;;;;;;;16.93;50.91;100051.97;5033609;28;20056;-72
2023/05/27 01:22:53;;;;;;;0.40;0.40;;;;;;;16.87;50.99;100051.25;5034714;28;20049;-72
2023/05/27 01:25:23;;;;;;;1.25;0.80;;;;;;;16.77;51.25;100048.81;5034560;28;20128;-69
2023/05/27 01:27:52;;;;;;;0.40;0.40;;;;;;;16.75;50.66;100050.59;5034692;28;20042;-72
2023/05/27 01:30:22;;;;;;;1.20;1.10;;;;;;;16.77;51.20;100040.28;5034851;28;20072;-72
2023/05/27 01:32:56;;;;;;;1.35;1.15;;;;;;;16.80;51.48;100042.75;5033296;28;20046;-73
2023/05/27 01:35:31;;;;;;;0.70;0.70;;;;;;;16.80;51.61;100040.19;5034769;28;20498;-71
2023/05/27 01:38:06;;;;;;;0.73;0.73;;;;;;;16.79;51.83;100037.66;5034457;28;20049;-69
2023/05/27 01:40:36;;;;;;;0.68;0.68;;;;;;;16.79;51.53;100038.50;5034416;28;20050;-71
2023/05/27 01:43:07;;;;;;;0.98;0.88;;;;;;;16.80;50.93;100036.75;5033400;28;20046;-70
2023/05/27 01:45:36;;;;;;;1.40;1.30;;;;;;;16.76;50.64;100038.56;5032939;28;20041;-72
2023/05/27 01:48:06;;;;;;;0.95;0.90;;;;;;;16.73;50.52;100034.31;5032640;28;20049;-70
2023/05/27 01:50:35;;;;;;;0.30;0.30;;;;;;;16.72;50.23;100034.34;5034157;28;20054;-73
2023/05/27 01:53:06;;;;;;;0.77;0.77;;;;;;;16.73;50.40;100033.44;5034123;28;20042;-72
2023/05/27 01:55:35;;;;;;;0.63;0.63;;;;;;;16.68;50.27;100035.28;5033196;28;20232;-70
2023/05/27 01:58:04;;;;;;;0.60;0.60;;;;;;;16.68;50.30;100037.84;5032949;28;20045;-72
2023/05/27 02:00:33;;;;;;;0.60;0.60;;;;;;;16.63;50.48;100044.81;5032859;28;20042;-69
2023/05/27 02:03:01;;;;;;;4.43;1.90;;;;;;;16.65;50.87;100040.50;5032876;28;20041;-72
2023/05/27 02:05:31;;;;;;;2.72;1.30;;;;;;;16.63;50.79;100039.66;5034140;28;20045;-69
2023/05/27 02:08:00;;;;;;;3.95;1.10;;;;;;;16.58;50.82;100034.59;5033817;28;20088;-69
2023/05/27 02:10:30;;;;;;;0.60;0.60;;;;;;;16.60;51.37;100047.47;5032994;28;20152;-70
2023/05/27 02:12:59;;;;;;;1.30;1.20;;;;;;;16.51;51.17;100038.19;5032687;28;20045;-69
2023/05/27 02:15:29;;;;;;;1.52;1.13;;;;;;;16.46;50.98;100036.56;5033809;28;20045;-69
2023/05/27 02:17:58;;;;;;;0.70;0.70;;;;;;;16.43;51.21;100028.88;5033696;28;20061;-69
2023/05/27 02:20:29;;;;;;;0.77;0.70;;;;;;;16.39;51.61;100045.25;5032542;28;20044;-72
2023/05/27 02:23:02;;;;;;;0.50;0.50;;;;;;;16.34;51.24;100040.19;5034056;28;20126;-72
2023/05/27 02:25:35;;;;;;;0.82;0.80;;;;;;;16.31;51.56;100036.81;5034490;28;20076;-72
2023/05/27 02:28:07;;;;;;;0.80;0.80;;;;;;;16.23;51.70;100036.97;5032761;28;20049;-70
2023/05/27 02:30:36;;;;;;;1.23;1.15;;;;;;;16.27;51.85;100037.78;5032797;28;20045;-72
2023/05/27 02:33:05;;;;;;;0.73;0.60;;;;;;;16.27;52.24;100037.78;5033632;28;20120;-70
2023/05/27 02:35:36;;;;;;;0.65;0.65;;;;;;;16.23;52.07;100036.97;5033887;28;20103;-69
2023/05/27 02:38:05;;;;;;;0.60;0.60;;;;;;;16.21;52.38;100033.56;5033585;28;20541;-69
2023/05/27 02:40:35;;;;;;;0.47;0.47;;;;;;;16.17;52.29;100037.09;5033604;28;20049;-69
2023/05/27 02:43:04;;;;;;;0.95;0.50;;;;;;;16.10;52.53;100046.63;5033492;28;20275;-72
2023/05/27 02:45:35;;;;;;;1.25;1.15;;;;;;;16.14;52.18;100037.13;5033181;28;20049;-72
2023/05/27 02:48:03;;;;;;;2.97;1.00;;;;;;;16.12;52.26;100032.88;5033457;28;20053;-70
2023/05/27 02:50:32;;;;;;;5.35;0.95;;;;;;;16.13;51.81;100034.56;5032227;28;20498;-72
2023/05/27 02:53:01;;;;;;;0.47;0.47;;;;;;;16.17;52.40;100025.94;5032253;28;20043;-70
2023/05/27 02:55:32;;;;;;;0.80;0.80;;;;;;;16.14;52.23;100031.13;5033417;28;20088;-72
2023/05/27 02:58:03;;;;;;;0.40;0.40;;;;;;;16.05;52.18;100032.97;5032621;28;20049;-72
2023/05/27 03:00:34;;;;;;;1.73;1.63;;;;;;;16.01;52.10;100041.63;5037455;28;20077;-73
2023/05/27 03:03:05;;;;;;;;;;;;;;;16.06;52.21;100029.53;5037826;28;20391;-70
2023/05/27 03:05:34;;;;;;;1.92;1.05;;;;;;;16.10;52.25;100036.31;5037311;28;19954;-70
2023/05/27 03:08:05;;;;;;;0.60;0.60;;;;;;;16.07;52.41;100036.41;5036262;28;20494;-71
2023/05/27 03:10:35;;;;;;;1.40;1.30;;;;;;;16.08;52.06;100032.94;5036144;28;20053;-71
2023/05/27 03:13:05;;;;;;;1.77;0.87;;;;;;;16.08;52.37;100038.06;5037865;28;20394;-70
2023/05/27 03:15:35;;;;;;;5.22;0.88;;;;;;;16.09;52.35;100044.94;5036232;28;20128;-71
2023/05/27 03:18:04;;;;;;;1.30;1.20;;;;;;;16.07;52.75;100046.69;5036988;28;20049;-71
2023/05/27 03:20:33;;;;;;;0.65;0.65;;;;;;;16.04;52.85;100051.88;5035837;28;20045;-74
2023/05/27 03:23:02;;;;;;;0.80;0.80;;;;;;;16.03;52.61;100052.75;5035813;28;20569;-70
2023/05/27 03:25:33;;;;;;;1.10;0.88;;;;;;;16.00;52.74;100050.22;5037239;28;20069;-70
2023/05/27 03:28:06;;;;;;;0.63;0.60;;;;;;;16.12;52.85;100063.78;5036865;28;20095;-69
2023/05/27 03:30:35;;;;;;;1.13;0.63;;;;;;;16.10;52.64;100063.78;5035605;28;20071;-71
2023/05/27 03:33:05;;;;;;;0.63;0.63;;;;;;;16.13;53.03;100060.31;5036806;28;20059;-72
2023/05/27 03:35:37;;;;;;;0.38;0.38;;;;;;;16.15;53.24;100061.16;5037547;28;20103;-72
2023/05/27 03:38:06;;;;;;;1.37;1.27;;;;;;;16.18;53.27;100053.38;5035831;28;20042;-72
2023/05/27 03:40:35;;;;;;;0.40;0.40;;;;;;;16.09;53.35;100050.09;5035406;28;20279;-70
2023/05/27 03:43:10;;;;;;;0.60;0.60;;;;;;;16.17;53.53;100061.97;5036930;28;20308;-69
2023/05/27 03:45:39;;;;;;;1.88;1.35;;;;;;;16.09;53.76;100060.41;5036331;28;20056;-72
2023/05/27 03:48:08;;;;;;;0.57;0.52;;;;;;;16.04;54.15;100067.34;5035435;28;20045;-71
2023/05/27 03:50:38;;;;;;;1.15;0.98;;;;;;;15.97;54.36;100065.75;5036436;28;20061;-70
2023/05/27 03:53:09;;;;;;;0.98;0.93;;;;;;;16.01;54.09;100062.22;5035282;28;20080;-70
2023/05/27 03:55:38;;;;;;;0.60;0.60;;;;;;;16.08;54.54;100062.97;5036500;28;20073;-73
2023/05/27 03:58:09;;;;;;;;;;;;;;;16.05;54.54;100063.88;5036773;28;20046;-73
2023/05/27 04:00:40;;;;;;;4.20;1.40;;;;;;;16.01;55.04;100072.53;5036678;28;19936;-70
2023/05/27 04:03:09;;;;;;;0.70;0.70;;;;;;;15.93;54.63;100058.91;5034995;28;20132;-71
2023/05/27 04:05:38;;;;;;;1.17;0.82;;;;;;;16.03;54.59;100065.63;5035340;28;20045;-74
2023/05/27 04:08:07;;;;;;;0.88;0.88;;;;;;;16.12;54.13;100058.63;5034885;28;20046;-71
2023/05/27 04:10:36;;;;;;;0.70;0.67;;;;;;;16.17;54.46;100064.56;5034037;28;20495;-69
2023/05/27 04:13:05;;;;;;;0.40;0.40;;;;;;;16.17;54.34;100067.13;5036041;28;20045;-69
2023/05/27 04:15:36;;;;;;;1.58;1.48;;;;;;;16.18;53.85;100071.38;5036065;28;20282;-74
2023/05/27 04:18:05;;;;;;;0.70;0.70;;;;;;;16.20;53.96;100061.91;5036300;28;20537;-70
2023/05/27 04:20:39;;;;;;;1.45;1.35;;;;;;;16.25;53.97;100065.25;5036168;28;20424;-70
2023/05/27 04:23:09;;;;;;;2.25;1.27;;;;;;;16.31;53.86;100065.16;5034993;28;20491;-68
2023/05/27 04:25:39;;;;;;;2.65;0.90;;;;;;;16.32;53.92;100067.69;5035783;28;20049;-71
2023/05/27 04:28:10;;;;;;;1.35;1.25;;;;;;;16.30;54.11;100063.44;5035737;28;20049;-70
2023/05/27 04:30:47;;;;;;;1.00;0.95;;;;;;;16.37;53.83;100062.47;5034550;28;20064;-70
2023/05/27 04:33:26;;;;;;;0.47;0.47;;;;;;;16.43;53.78;100067.53;5034862;28;20446;-72
2023/05/27 04:35:56;;;;;;;0.47;0.47;;;;;;;16.54;54.12;100068.19;5034458;28;20128;-70
2023/05/27 04:38:31;;;;;;;12.18;1.85;;;;;;;16.62;53.99;100074.06;5034621;28;20056;-71
2023/05/27 04:41:04;;;;;;;1.27;0.88;;;;;;;16.69;53.45;100073.94;5035486;28;20041;-69
2023/05/27 04:43:44;;;;;;;1.33;0.98;;;;;;;16.84;53.49;100072.78;5035562;28;20128;-69
2023/05/27 04:46:18;;;;;;;0.85;0.85;;;;;;;16.98;53.11;100070.78;5034301;28;20058;-71
2023/05/27 04:48:48;;;;;;;1.10;1.00;;;;;;;17.13;53.09;100078.16;5034211;28;20056;-73
2023/05/27 04:51:17;;;;;;;0.70;0.70;;;;;;;17.21;53.11;100073.69;5035317;28;20065;-70
2023/05/27 04:53:47;;;;;;;3.10;2.00;;;;;;;17.27;53.15;100078.75;5034113;28;20035;-70
2023/05/27 04:56:19;;;;;;;0.52;0.52;;;;;;;17.42;53.11;100073.22;5034435;28;20067;-71
2023/05/27 04:58:48;;;;;;;0.77;0.77;;;;;;;17.55;52.62;100080.72;5034008;28;20048;-73
2023/05/27 05:01:24;;;;;;;1.25;1.17;;;;;;;17.66;52.01;100071.03;5033973;28;20049;-74
2023/05/27 05:04:12;;;;;;;0.77;0.77;;;;;;;17.76;51.50;100077.66;5033983;28;20132;-72
2023/05/27 05:07:01;;;;;;;0.73;0.73;;;;;;;17.87;51.12;100080.84;5034544;28;20041;-72
2023/05/27 05:09:33;;;;;;;0.40;0.40;;;;;;;17.96;50.81;100081.47;5035039;28;20052;-72
2023/05/27 05:12:09;;;;;;;1.05;0.95;;;;;;;18.13;50.67;100075.91;5034907;28;20048;-71
2023/05/27 05:14:42;;;;;;;0.60;0.60;;;;;;;18.16;50.19;100078.41;5033715;28;20109;-71
2023/05/27 05:17:12;;;;;;;0.60;0.60;;;;;;;18.28;49.94;100072.94;5034903;28;20041;-71
2023/05/27 05:19:43;;;;;;;0.88;0.88;;;;;;;18.43;49.99;100077.69;5034864;28;20091;-73
2023/05/27 05:22:13;;;;;;;0.90;0.90;;;;;;;18.52;49.94;100066.31;5034722;28;20076;-72
2023/05/27 05:24:46;;;;;;;1.63;1.08;;;;;;;18.69;49.56;100080.44;5033601;28;20053;-73
2023/05/27 05:27:15;;;;;;;1.88;1.00;;;;;;;18.79;49.77;100069.88;5033949;28;20372;-75
2023/05/27 05:29:44;;;;;;;1.20;0.95;;;;;;;18.91;49.68;100072.13;5033705;28;20045;-72
2023/05/27 05:32:15;;;;;;;0.60;0.60;;;;;;;18.78;49.40;100044.88;5033945;28;20383;-71
2023/05/27 05:34:44;;;;;;;1.23;1.13;;;;;;;18.79;49.27;100069.88;5033418;28;20053;-72
2023/05/27 05:37:14;;;;;;;2.65;0.80;;;;;;;18.84;49.23;100078.31;5034472;28;20072;-73
2023/05/27 05:39:44;;;;;;;1.75;1.58;;;;;;;18.86;49.07;100079.16;5034411;28;20042;-72
2023/05/27 05:42:13;;;;;;;1.30;1.15;;;;;;;18.84;48.78;100083.50;5033212;28;20046;-72
2023/05/27 05:44:42;;;;;;;0.90;0.90;;;;;;;18.79;48.80;100085.41;5033065;28;20128;-75
2023/05/27 05:47:11;;;;;;;1.00;0.90;;;;;;;18.90;48.92;100091.09;5032871;28;20423;-74
2023/05/27 05:49:48;;;;;;;0.52;0.50;;;;;;;19.05;48.95;100085.50;5033403;28;20060;-72
2023/05/27 05:52:17;;;;;;;1.05;0.85;;;;;;;19.16;49.56;100088.63;5035100;28;20057;-73
2023/05/27 05:54:48;;;;;;;0.50;0.50;;;;;;;19.25;49.17;100078.00;5034529;28;20067;-71
2023/05/27 05:57:17;;;;;;;2.80;0.85;;;;;;;19.35;49.20;100088.03;5028052;28;20042;-72
2023/05/27 05:59:46;;;;;;;1.20;1.10;;;;;;;19.46;49.21;100085.13;5031702;28;20033;-72
2023/05/27 06:02:15;;;;;;;1.27;0.68;;;;;;;19.63;48.72;100098.44;5032919;28;20278;-75
2023/05/27 06:04:45;;;;;;;2.03;1.67;;;;;;;19.76;48.61;100098.91;5032753;28;20042;-73
2023/05/27 06:07:16;;;;;;;0.60;0.60;;;;;;;19.85;48.51;100102.06;5032778;28;20096;-74
2023/05/27 06:10:00;;;;;;;1.65;1.15;;;;;;;19.91;47.87;100098.44;5032715;28;20487;-72
2023/05/27 06:12:38;;;;;;;1.27;1.17;;;;;;;19.93;47.40;100102.66;5032694;28;20457;-73
2023/05/27 06:15:09;;;;;;;1.02;0.93;;;;;;;20.01;46.75;100105.84;5032738;28;20037;-72
2023/05/27 06:17:41;;;;;;;0.80;0.80;;;;;;;20.08;45.98;100097.88;5032635;28;20045;-73
2023/05/27 06:20:11;;;;;;;3.03;0.93;;;;;;;20.04;45.83;100097.97;5032611;28;20399;-73
2023/05/27 06:22:41;;;;;;;;;;;;;;;20.15;45.48;100096.78;5032876;28;20091;-75
2023/05/27 06:25:31;;;;;;;1.17;1.02;;;;;;;20.16;45.32;100098.44;4992913;28;19936;-74
2023/05/27 06:28:05;;;;;;;1.35;0.75;;;;;;;20.21;45.64;100101.75;5033747;28;20049;-76
2023/05/27 06:30:34;;;;;;;1.25;1.02;;;;;;;20.27;46.11;100096.41;5033999;28;20091;-75
2023/05/27 06:33:05;;;;;;;17.13;2.20;;;;;;;20.40;45.76;100100.25;5033186;28;20045;-75
2023/05/27 06:35:34;;;;;;;0.40;0.40;;;;;;;20.41;44.81;100094.19;5032333;28;20061;-74
2023/05/27 06:38:04;;;;;;;0.80;0.80;;;;;;;20.52;45.09;100097.25;5033392;28;20049;-74
2023/05/27 06:40:34;;;;;;;2.88;1.25;;;;;;;20.60;44.98;100100.44;5032782;28;20049;-74
2023/05/27 06:43:03;;;;;;;0.68;0.68;;;;;;;20.64;44.78;100097.69;5032220;28;20042;-72
2023/05/27 06:45:47;;;;;;;1.27;0.93;;;;;;;20.49;43.90;100105.16;5032071;28;20380;-73
2023/05/27 06:48:41;;;;;;;0.40;0.40;;;;;;;20.55;43.69;100104.94;5033261;28;20049;-72
2023/05/27 06:51:10;;;;;;;2.53;1.25;;;;;;;20.53;44.07;100101.56;5032188;28;20410;-74
2023/05/27 06:53:41;;;;;;;3.67;1.43;;;;;;;20.65;44.25;100106.31;5033815;28;20038;-76
2023/05/27 06:56:13;;;;;;;0.80;0.80;;;;;;;20.73;44.12;100107.72;5033333;28;20310;-76
2023/05/27 06:58:53;;;;;;;1.83;1.00;;;;;;;20.87;44.02;100099.47;5032443;28;20049;-75
2023/05/27 07:01:22;;;;;;;0.98;0.93;;;;;;;20.94;44.06;100105.28;5032141;28;20553;-75
2023/05/27 07:04:00;;;;;;;0.75;0.73;;;;;;;20.96;43.38;100100.88;5031965;28;20128;-73
2023/05/27 07:06:40;;;;;;;0.77;0.77;;;;;;;20.96;43.33;100099.13;5033281;28;20149;-72
2023/05/27 07:09:11;;;;;;;0.77;0.77;;;;;;;21.12;43.09;100100.28;5033440;28;20065;-75
2023/05/27 07:11:40;;;;;;;1.02;0.77;;;;;;;21.25;43.21;100100.69;5032479;28;20068;-74
2023/05/27 07:14:13;;;;;;;1.00;0.85;;;;;;;21.32;42.96;100095.22;5031907;28;20522;-74
2023/05/27 07:16:43;;;;;;;0.57;0.57;;;;;;;21.48;43.20;100092.00;5033620;28;20045;-75
2023/05/27 07:19:13;;;;;;;1.35;1.25;;;;;;;21.60;43.01;100091.53;5031936;28;20049;-76
2023/05/27 07:21:53;;;;;;;0.73;0.70;;;;;;;21.71;42.80;100092.81;5033146;28;20053;-73
2023/05/27 07:24:26;;;;;;;0.55;0.55;;;;;;;21.83;42.89;100088.88;5033087;28;20054;-75
2023/05/27 07:26:57;;;;;;;1.27;0.80;;;;;;;21.87;42.49;100069.69;5033047;28;20076;-74
2023/05/27 07:29:29;;;;;;;1.08;0.98;;;;;;;21.91;42.21;100087.69;5031828;28;20037;-71
2023/05/27 07:32:22;;;;;;;0.77;0.77;;;;;;;21.92;41.74;100094.59;5029898;28;20041;-70
2023/05/27 07:34:51;;;;;;;0.52;0.52;;;;;;;22.00;41.84;100096.91;5033265;28;20049;-73
2023/05/27 07:37:22;;;;;;;0.60;0.60;;;;;;;22.09;41.43;100088.72;5033047;28;20390;-73
2023/05/27 07:39:53;;;;;;;0.50;0.50;;;;;;;22.14;41.69;100094.56;5031712;28;20057;-70
2023/05/27 07:42:22;;;;;;;0.50;0.50;;;;;;;22.24;42.30;100089.84;5032054;28;20563;-72
2023/05/27 07:44:50;;;;;;;0.50;0.50;;;;;;;22.25;41.82;100081.94;5032037;28;20045;-72
2023/05/27 07:47:19;;;;;;;0.70;0.65;;;;;;;22.15;41.55;100085.84;5035360;28;20060;-73
2023/05/27 07:49:51;;;;;;;0.65;0.65;;;;;;;22.26;41.74;100077.59;5035243;28;20406;-72
2023/05/27 07:52:41;;;;;;;0.70;0.70;;;;;;;22.47;41.78;100079.28;5036046;28;20053;-70
2023/05/27 07:55:25;;;;;;;1.15;1.08;;;;;;;22.44;41.01;100072.47;5036417;28;20049;-75
2023/05/27 07:57:55;;;;;;;1.20;1.10;;;;;;;22.44;40.93;100072.47;5036283;28;20073;-74
2023/05/27 08:00:30;;;;;;;0.40;0.40;;;;;;;22.53;41.28;100072.06;5036251;28;20037;-75
2023/05/27 08:02:59;;;;;;;0.45;0.45;;;;;;;22.60;41.43;100068.28;5036502;28;20068;-73
2023/05/27 08:05:49;;;;;;;1.50;1.00;;;;;;;22.74;41.62;100070.31;5036123;28;20053;-72
2023/05/27 08:08:44;;;;;;;0.40;0.40;;;;;;;22.70;41.15;100060.94;5035976;28;20128;-73
2023/05/27 08:11:25;;;;;;;0.70;0.70;;;;;;;22.97;41.12;100062.31;5036065;28;20136;-72
2023/05/27 08:14:04;;;;;;;0.95;0.90;;;;;;;22.97;40.40;100061.47;5036017;28;20096;-72
2023/05/27 08:16:43;;;;;;;0.73;0.73;;;;;;;22.81;40.20;100055.28;5035946;28;20053;-72
2023/05/27 08:19:24;;;;;;;0.77;0.77;;;;;;;22.95;40.57;100058.09;5035801;28;20057;-73
2023/05/27 08:22:03;;;;;;;1.58;1.40;;;;;;;23.10;40.14;100052.19;5036056;28;20053;-73
2023/05/27 08:24:44;;;;;;;3.80;1.52;;;;;;;23.08;39.52;100059.25;5036067;28;20050;-71
2023/05/27 08:27:46;;;;;;;0.60;0.60;;;;;;;22.91;39.14;100025.31;5035635;28;20052;-71
2023/05/27 08:30:22;;;;;;;1.15;1.08;;;;;;;23.03;39.45;100045.59;5035599;28;20084;-71
2023/05/27 08:32:56;;;;;;;1.77;0.90;;;;;;;23.03;39.35;100046.44;5035768;28;20095;-74
2023/05/27 08:35:25;;;;;;;0.68;0.68;;;;;;;23.20;39.40;100048.25;5034449;28;20121;-74
2023/05/27 08:37:54;;;;;;;0.73;0.73;;;;;;;23.31;39.35;100051.19;5035604;28;20053;-73
2023/05/27 08:40:28;;;;;;;0.55;0.50;;;;;;;23.46;39.05;100045.31;5035868;28;20060;-72
2023/05/27 08:42:59;;;;;;;3.00;1.13;;;;;;;23.56;39.00;100041.34;5034417;28;20040;-74
2023/05/27 08:45:28;;;;;;;1.00;0.90;;;;;;;23.72;39.54;100046.66;5033977;28;20132;-70
2023/05/27 08:47:58;;;;;;;0.60;0.60;;;;;;;23.70;38.64;100041.53;5034079;28;20107;-71
2023/05/27 08:50:35;;;;;;;0.68;0.68;;;;;;;23.60;38.05;100037.66;5035338;28;20049;-72
2023/05/27 08:53:04;;;;;;;0.60;0.60;;;;;;;23.64;38.61;100038.34;5034177;28;20048;-75
2023/05/27 08:55:35;;;;;;;0.90;0.88;;;;;;;23.81;38.83;100041.84;5034412;28;20136;-74
2023/05/27 08:58:07;;;;;;;0.40;0.40;;;;;;;23.92;38.79;100028.28;5033738;28;20045;-73
2023/05/27 09:00:43;;;;;;;1.52;1.27;;;;;;;23.97;38.45;100039.34;5035462;28;20053;-74
2023/05/27 09:03:19;;;;;;;1.88;1.50;;;;;;;24.04;38.15;100032.03;5035176;28;20372;-72
2023/05/27 09:05:49;;;;;;;0.75;0.75;;;;;;;24.02;37.52;100028.66;5034506;28;20049;-76
2023/05/27 09:08:19;;;;;;;0.77;0.77;;;;;;;24.08;37.65;100025.75;5035296;28;20107;-74
2023/05/27 09:10:47;;;;;;;0.38;0.38;;;;;;;24.14;37.60;100018.47;5034774;28;20046;-73
2023/05/27 09:13:28;;;;;;;1.27;1.17;;;;;;;24.12;37.44;100015.09;5035240;28;20042;-75
2023/05/27 09:16:01;;;;;;;0.60;0.60;;;;;;;24.32;37.74;100022.75;5034882;28;20091;-74
2023/05/27 09:18:32;;;;;;;0.70;0.70;;;;;;;24.35;37.21;100022.63;5035098;28;20128;-72
2023/05/27 09:21:01;;;;;;;0.82;0.82;;;;;;;24.28;36.79;100025.63;5034810;28;20083;-75
2023/05/27 09:23:30;;;;;;;0.60;0.60;;;;;;;24.32;37.16;100027.13;5034676;28;20045;-74
2023/05/27 09:26:00;;;;;;;0.60;0.60;;;;;;;24.24;37.00;100021.44;5033543;28;20041;-73
2023/05/27 09:28:30;;;;;;;0.95;0.93;;;;;;;24.22;36.85;100031.13;5035002;28;20495;-73
2023/05/27 09:31:04;;;;;;;0.55;0.52;;;;;;;24.25;36.69;100016.19;5034575;28;20076;-72
2023/05/27 09:33:36;;;;;;;0.50;0.50;;;;;;;24.40;37.62;100017.97;5034470;28;20049;-73
2023/05/27 09:36:05;;;;;;;0.40;0.40;;;;;;;24.57;37.24;100023.16;5034458;28;20044;-73
2023/05/27 09:38:36;;;;;;;0.50;0.50;;;;;;;24.43;36.74;100009.13;5034665;28;20280;-72
2023/05/27 09:41:06;;;;;;;0.50;0.50;;;;;;;24.48;37.30;100007.13;5034423;28;20095;-73
2023/05/27 09:43:36;;;;;;;0.30;0.30;;;;;;;24.73;37.22;100023.22;5034413;28;20049;-72
2023/05/27 09:46:15;;;;;;;1.23;1.08;;;;;;;24.83;36.96;100024.44;5034072;28;20080;-75
2023/05/27 09:48:44;;;;;;;0.60;0.60;;;;;;;25.05;37.28;100024.94;5034321;28;20045;-75
2023/05/27 09:51:14;;;;;;;0.45;0.45;;;;;;;24.97;36.93;100026.31;5034153;28;20051;-75
2023/05/27 09:53:45;;;;;;;0.82;0.50;;;;;;;24.94;37.48;100027.31;5034230;28;20048;-75
2023/05/27 09:56:15;;;;;;;1.30;0.75;;;;;;;24.72;36.92;100026.72;5033036;28;20073;-74
2023/05/27 09:58:45;;;;;;;0.50;0.50;;;;;;;24.71;37.20;100025.06;5033972;28;20045;-73
2023/05/27 10:01:17;;;;;;;0.30;0.30;;;;;;;24.81;37.78;100015.81;5034032;28;20041;-72
2023/05/27 10:03:48;;;;;;;0.77;0.70;;;;;;;25.01;38.17;100028.66;5034061;28;20103;-75
2023/05/27 10:06:18;;;;;;;1.27;1.15;;;;;;;25.16;37.26;100029.59;5034026;28;20055;-73
2023/05/27 10:08:47;;;;;;;0.65;0.65;;;;;;;25.06;36.31;100026.66;5033623;28;20072;-73
2023/05/27 10:11:16;;;;;;;0.40;0.40;;;;;;;24.93;36.54;100020.38;5033826;28;20073;-73
2023/05/27 10:13:49;;;;;;;0.57;0.55;;;;;;;24.83;36.73;100021.84;5033971;28;20045;-74
2023/05/27 10:16:21;;;;;;;1.55;0.73;;;;;;;25.07;36.97;100017.91;5032460;28;20061;-75
2023/05/27 10:18:55;;;;;;;1.17;0.93;;;;;;;25.22;37.18;100011.81;5033769;28;20050;-76
2023/05/27 10:21:27;;;;;;;0.50;0.50;;;;;;;25.36;37.15;100008.44;5033828;28;20517;-75
2023/05/27 10:24:00;;;;;;;1.02;0.93;;;;;;;25.54;37.23;100011.81;5033771;28;20441;-74
2023/05/27 10:26:34;;;;;;;2.30;1.10;;;;;;;25.32;36.26;99996.44;5033688;28;20049;-75
2023/05/27 10:29:10;;;;;;;1.33;1.20;;;;;;;25.26;36.64;99992.44;5033718;28;20049;-74
2023/05/27 10:31:46;;;;;;;7.13;2.28;;;;;;;25.18;36.60;100010.28;5033543;28;20045;-72
2023/05/27 10:34:20;;;;;;;0.60;0.60;;;;;;;25.31;36.59;100000.84;5033987;28;20053;-75
2023/05/27 10:37:03;;;;;;;0.90;0.73;;;;;;;25.44;37.69;100000.16;5033530;28;20041;-75
2023/05/27 10:39:32;;;;;;;0.80;0.70;;;;;;;25.66;37.70;99985.81;5033590;28;20072;-73
2023/05/27 10:42:01;;;;;;;1.08;0.75;;;;;;;25.66;36.59;99991.03;5033467;28;20046;-74
2023/05/27 10:44:34;;;;;;;9.15;1.52;;;;;;;25.52;36.75;99997.97;5033474;28;20045;-69
2023/05/27 10:47:05;;;;;;;0.65;0.65;;;;;;;25.50;36.52;99998.09;5033548;28;20080;-76
2023/05/27 10:49:39;;;;;;;1.30;1.15;;;;;;;25.52;36.11;100003.22;5033933;28;20055;-74
2023/05/27 10:52:12;;;;;;;1.10;1.00;;;;;;;25.12;36.38;99988.91;5033385;28;20136;-74
2023/05/27 10:54:42;;;;;;;0.95;0.85;;;;;;;25.02;36.24;99983.34;5032227;28;20060;-76
2023/05/27 10:57:11;;;;;;;0.47;0.47;;;;;;;25.17;36.70;99987.69;5033691;28;20396;-73
2023/05/27 10:59:49;;;;;;;1.40;1.15;;;;;;;25.41;37.05;99985.47;5033294;28;20083;-75
2023/05/27 11:02:18;;;;;;;0.50;0.50;;;;;;;25.60;37.07;99980.91;5033300;28;20037;-75
2023/05/27 11:04:48;;;;;;;1.10;1.00;;;;;;;25.81;36.84;99986.69;5033274;28;20132;-73
2023/05/27 11:07:19;;;;;;;;;;;;;;;25.87;36.52;99978.47;5033847;28;20053;-72
2023/05/27 11:09:49;;;;;;;1.02;0.70;;;;;;;25.84;36.16;99973.44;5033846;28;19964;-73
2023/05/27 11:12:19;;;;;;;0.38;0.38;;;;;;;25.97;35.95;99974.38;5033188;28;20052;-75
2023/05/27 11:14:51;;;;;;;0.95;0.90;;;;;;;26.13;36.06;99979.59;5033187;28;20053;-72
2023/05/27 11:17:20;;;;;;;0.98;0.88;;;;;;;26.46;38.07;99983.66;5033226;28;20045;-73
2023/05/27 11:19:50;;;;;;;1.13;0.55;;;;;;;26.36;36.82;99981.66;5034973;28;20040;-76
2023/05/27 11:22:20;;;;;;;1.58;0.88;;;;;;;26.28;35.97;99969.03;5037040;28;20050;-72
2023/05/27 11:25:01;;;;;;;0.70;0.70;;;;;;;26.11;35.63;99973.59;5037246;28;20038;-73
2023/05/27 11:27:35;;;;;;;0.50;0.50;;;;;;;26.23;36.11;99965.84;5037240;28;20571;-72
2023/05/27 11:30:11;;;;;;;1.20;1.00;;;;;;;26.41;36.78;99964.75;5035999;28;20042;-75
2023/05/27 11:32:43;;;;;;;0.60;0.60;;;;;;;26.50;36.22;99964.19;5036844;28;20455;-74
2023/05/27 11:35:17;;;;;;;0.70;0.70;;;;;;;26.54;36.77;99970.06;5037346;28;20050;-73
2023/05/27 11:37:48;;;;;;;0.43;0.43;;;;;;;26.69;37.55;99958.66;5036759;28;20056;-73
2023/05/27 11:40:17;;;;;;;2.92;1.27;;;;;;;26.86;36.90;99970.72;5036988;28;20046;-75
2023/05/27 11:42:47;;;;;;;0.63;0.63;;;;;;;26.68;35.81;99964.84;5036615;28;20045;-75
2023/05/27 11:45:18;;;;;;;0.63;0.63;;;;;;;26.55;35.74;99956.88;5036909;28;20092;-74
2023/05/27 11:47:50;;;;;;;0.75;0.75;;;;;;;26.44;35.37;99969.78;5036483;28;20049;-72